createdAt,value
2022-12-28T00:04:47.061Z,74.43
2022-12-28T00:14:58.795Z,74.80
2022-12-28T00:20:04.877Z,66.38
2022-12-28T00:25:11.315Z,69.53
2022-12-28T00:30:17.674Z,69.50
2022-12-28T00:35:24.066Z,81.30
2022-12-28T00:45:36.504Z,55.70
2022-12-28T00:50:43.679Z,71.53
2022-12-28T00:55:49.754Z,57.40
2022-12-28T01:00:56.235Z,55.78
2022-12-28T01:06:02.356Z,52.40
2022-12-28T01:11:18.666Z,68.67
2022-12-28T01:16:44.609Z,64.20
2022-12-28T01:21:54.097Z,59.13
2022-12-28T01:27:01.041Z,58.85
2022-12-28T01:32:07.310Z,54.13
2022-12-28T01:37:13.723Z,62.10
2022-12-28T01:47:35.301Z,50.55
2022-12-28T01:52:42.382Z,57.50
2022-12-28T02:03:00.210Z,57.15
2022-12-28T02:08:17.255Z,61.00
2022-12-28T02:13:24.262Z,54.58
2022-12-28T02:18:31.063Z,51.05
2022-12-28T02:23:42.853Z,53.85
2022-12-28T02:29:12.264Z,45.38
2022-12-28T02:34:22.498Z,51.60
2022-12-28T02:39:34.338Z,55.83
2022-12-28T02:44:59.196Z,78.95
2022-12-28T02:50:10.065Z,40.10
2022-12-28T02:55:40.237Z,54.90
2022-12-28T03:00:59.403Z,34.58
2022-12-28T03:06:44.031Z,48.72
2022-12-28T03:12:28.375Z,55.03
2022-12-28T03:17:53.375Z,52.83
2022-12-28T03:23:19.536Z,69.15
2022-12-28T03:28:45.717Z,46.10
2022-12-28T03:33:54.155Z,53.25
2022-12-28T03:39:13.217Z,60.70
2022-12-28T03:44:29.675Z,47.90
2022-12-28T03:49:35.911Z,59.08
2022-12-28T03:54:46.834Z,71.72
2022-12-28T03:59:57.478Z,74.97
2022-12-28T04:05:03.909Z,71.38
2022-12-28T04:10:11.117Z,78.07
2022-12-28T04:15:21.217Z,79.85
2022-12-28T04:20:27.448Z,82.43
2022-12-28T04:25:33.737Z,88.00
2022-12-28T04:30:40.214Z,81.13
2022-12-28T04:40:53.606Z,79.43
2022-12-28T04:46:08.396Z,80.80
2022-12-28T04:51:16.450Z,96.88
2022-12-28T04:56:25.353Z,94.97
2022-12-28T05:01:38.938Z,85.35
2022-12-28T05:06:51.783Z,69.40
2022-12-28T05:12:02.619Z,76.35
2022-12-28T05:17:20.184Z,70.60
2022-12-28T05:22:35.013Z,98.38
2022-12-28T05:27:51.061Z,82.93
2022-12-28T05:32:57.703Z,68.70
2022-12-28T05:38:16.709Z,80.57
2022-12-28T05:43:47.630Z,88.50
2022-12-28T05:48:57.205Z,62.00
2022-12-28T05:54:08.566Z,79.55
2022-12-28T05:59:16.642Z,79.80
2022-12-28T06:04:23.936Z,67.90
2022-12-28T06:09:36.351Z,67.72
2022-12-28T06:14:49.108Z,69.22
2022-12-28T06:19:57.665Z,66.60
2022-12-28T06:25:07.637Z,68.05
2022-12-28T06:30:14.752Z,60.63
2022-12-28T06:35:24.690Z,46.65
2022-12-28T06:40:54.549Z,58.00
2022-12-28T06:46:12.036Z,50.17
2022-12-28T06:51:23.335Z,41.92
2022-12-28T06:56:31.113Z,42.25
2022-12-28T07:01:41.875Z,36.10
2022-12-28T07:06:48.318Z,29.42
2022-12-28T07:17:01.711Z,32.45
2022-12-28T07:22:08.287Z,20.38
2022-12-28T07:27:14.947Z,11.15
2022-12-28T07:32:23.280Z,15.27
2022-12-28T07:37:36.421Z,11.27
2022-12-28T07:42:44.142Z,10.55
2022-12-28T07:47:51.104Z,12.25
2022-12-28T07:52:57.671Z,8.57
2022-12-28T08:03:14.850Z,8.70
2022-12-28T08:08:28.895Z,6.65
2022-12-28T08:13:37.536Z,5.18
2022-12-28T08:18:53.959Z,7.35
2022-12-28T08:24:00.989Z,9.38
2022-12-28T08:29:19.126Z,5.63
2022-12-28T08:34:28.749Z,6.18
2022-12-28T08:39:34.836Z,4.85
2022-12-28T08:44:41.601Z,5.23
2022-12-28T08:49:47.701Z,4.80
2022-12-28T08:54:54.523Z,6.05
2022-12-28T09:00:01.457Z,6.13
2022-12-28T09:05:11.810Z,7.90
2022-12-28T09:10:18.577Z,5.72
2022-12-28T09:15:25.164Z,8.32
2022-12-28T09:25:37.396Z,5.78
2022-12-28T09:30:44.308Z,9.02
2022-12-28T09:35:50.780Z,7.63
2022-12-28T09:40:57.606Z,7.95
2022-12-28T09:46:04.076Z,7.30
2022-12-28T09:56:21.655Z,5.05
2022-12-28T10:01:28.010Z,6.95
2022-12-28T10:06:38.574Z,7.45
2022-12-28T10:11:48.260Z,8.57
2022-12-28T10:16:56.270Z,10.10
2022-12-28T10:22:11.310Z,5.50
2022-12-28T10:27:33.284Z,9.02
2022-12-28T10:33:02.213Z,8.18
2022-12-28T10:38:26.697Z,6.03
2022-12-28T10:43:36.960Z,7.22
2022-12-28T10:48:52.305Z,6.43
2022-12-28T10:53:59.951Z,4.90
2022-12-28T10:59:16.847Z,7.43
2022-12-28T11:04:24.886Z,7.68
2022-12-28T11:09:40.684Z,7.10
2022-12-28T11:14:49.673Z,3.70
2022-12-28T11:19:59.491Z,8.20
2022-12-28T11:25:19.150Z,8.57
2022-12-28T11:30:30.751Z,5.88
2022-12-28T11:35:39.439Z,6.32
2022-12-28T11:40:53.714Z,6.97
2022-12-28T11:46:09.369Z,5.78
2022-12-28T11:51:24.276Z,3.53
2022-12-28T11:57:03.580Z,4.75
2022-12-28T12:02:29.255Z,4.18
2022-12-28T12:07:53.113Z,7.13
2022-12-28T12:13:01.926Z,3.28
2022-12-28T12:18:21.167Z,6.90
2022-12-28T12:23:51.709Z,6.63
2022-12-28T12:29:04.145Z,3.83
2022-12-28T12:34:31.069Z,5.68
2022-12-28T12:45:07.299Z,4.45
2022-12-28T12:50:22.916Z,5.55
2022-12-28T12:55:38.192Z,7.53
2022-12-28T13:00:54.692Z,4.85
2022-12-28T13:06:09.200Z,4.18
2022-12-28T13:11:24.930Z,6.43
2022-12-28T13:16:38.499Z,2.75
2022-12-28T13:21:49.360Z,6.15
2022-12-28T13:27:07.620Z,3.28
2022-12-28T13:32:39.094Z,5.03
2022-12-28T13:38:14.664Z,3.45
2022-12-28T13:43:42.012Z,4.88
2022-12-28T13:49:01.678Z,4.30
2022-12-28T13:54:16.569Z,4.32
2022-12-28T13:59:24.438Z,3.67
2022-12-28T14:04:52.307Z,4.20
2022-12-28T14:10:09.662Z,4.70
2022-12-28T14:15:27.217Z,4.80
2022-12-28T14:20:53.307Z,4.18
2022-12-28T14:26:35.467Z,3.13
2022-12-28T14:31:49.144Z,6.95
2022-12-28T14:42:37.182Z,5.45
2022-12-28T14:47:56.745Z,3.95
2022-12-28T14:53:20.660Z,4.97
2022-12-28T14:58:37.391Z,6.40
2022-12-28T15:04:02.327Z,2.97
2022-12-28T15:09:10.303Z,7.88
2022-12-28T15:14:22.474Z,3.22
2022-12-28T15:19:40.301Z,5.47
2022-12-28T15:24:57.679Z,7.10
2022-12-28T15:30:13.134Z,4.18
2022-12-28T15:35:26.689Z,6.80
2022-12-28T15:40:37.380Z,7.18
2022-12-28T15:45:45.018Z,4.13
2022-12-28T15:50:58.350Z,3.05
2022-12-28T15:56:11.428Z,5.40
2022-12-28T16:01:32.216Z,3.28
2022-12-28T16:06:45.358Z,7.68
2022-12-28T16:11:56.416Z,2.88
2022-12-28T16:17:03.446Z,8.70
2022-12-28T16:22:13.663Z,7.15
2022-12-28T16:27:31.893Z,9.52
2022-12-28T16:32:41.165Z,5.43
2022-12-28T16:37:46.988Z,11.53
2022-12-28T16:42:53.559Z,5.20
2022-12-28T16:53:06.896Z,6.13
2022-12-28T16:58:13.329Z,7.13
2022-12-28T17:03:19.238Z,6.45
2022-12-28T17:08:25.438Z,7.00
2022-12-28T17:18:37.812Z,12.27
2022-12-28T17:23:44.000Z,10.75
2022-12-28T17:28:50.217Z,10.52
2022-12-28T17:33:57.784Z,11.02
2022-12-28T17:39:04.112Z,12.10
2022-12-28T17:49:17.832Z,12.88
2022-12-28T17:54:23.731Z,6.90
2022-12-28T17:59:29.501Z,7.93
2022-12-28T18:04:36.311Z,9.88
2022-12-28T18:09:42.796Z,11.70
2022-12-28T18:14:48.918Z,14.30
2022-12-28T18:19:57.684Z,8.27
2022-12-28T18:25:04.007Z,10.13
2022-12-28T18:30:11.031Z,13.02
2022-12-28T18:35:17.171Z,14.40
2022-12-28T18:40:23.645Z,8.80
2022-12-28T18:50:35.005Z,17.00
2022-12-28T18:55:45.467Z,11.75
2022-12-28T19:00:52.008Z,14.60
2022-12-28T19:11:09.950Z,8.80
2022-12-28T19:16:19.395Z,12.45
2022-12-28T19:21:28.469Z,14.38
2022-12-28T19:26:35.547Z,7.43
2022-12-28T19:31:41.844Z,8.95
2022-12-28T19:36:48.359Z,13.55
2022-12-28T19:41:54.174Z,13.13
2022-12-28T19:47:01.089Z,16.83
2022-12-28T19:52:07.388Z,10.52
2022-12-28T19:57:13.397Z,12.68
2022-12-28T20:02:19.353Z,14.07
2022-12-28T20:07:25.888Z,18.65
2022-12-28T20:12:31.933Z,14.02
2022-12-28T20:17:38.029Z,10.90
2022-12-28T20:22:44.244Z,20.10
2022-12-28T20:32:55.862Z,15.18
2022-12-28T20:38:02.154Z,16.67
2022-12-28T20:43:26.506Z,17.45
2022-12-28T20:48:32.321Z,14.93
2022-12-28T20:53:38.335Z,25.53
2022-12-28T20:58:45.129Z,24.38
2022-12-28T21:03:51.644Z,16.55
2022-12-28T21:08:58.067Z,16.45
2022-12-28T21:14:03.872Z,21.80
2022-12-28T21:19:10.096Z,14.47
2022-12-28T21:24:16.116Z,11.57
2022-12-28T21:29:25.809Z,20.80
2022-12-28T21:34:32.308Z,12.40
2022-12-28T21:39:38.486Z,16.30
2022-12-28T21:44:44.079Z,16.08
2022-12-28T21:49:50.095Z,20.77
2022-12-28T21:54:56.167Z,22.55
2022-12-28T22:00:21.800Z,23.52
2022-12-28T22:05:43.364Z,15.43
2022-12-28T22:11:08.009Z,20.17
2022-12-28T22:16:14.008Z,18.33
2022-12-28T22:21:20.548Z,21.85
2022-12-28T22:31:32.641Z,16.65
2022-12-28T22:36:38.895Z,21.15
2022-12-28T22:41:45.177Z,14.27
2022-12-28T22:51:56.955Z,15.40
2022-12-28T22:57:02.901Z,18.73
2022-12-28T23:02:09.536Z,17.67
2022-12-28T23:07:16.194Z,14.05
2022-12-28T23:17:28.472Z,16.63
2022-12-28T23:22:53.943Z,15.23
2022-12-28T23:28:02.226Z,18.92
2022-12-28T23:33:08.305Z,12.27
2022-12-28T23:38:14.126Z,16.20
2022-12-28T23:43:20.077Z,15.00
2022-12-28T23:48:26.552Z,16.47
2022-12-28T23:58:38.105Z,14.25
